boxtops4education.com alexa rank chart, boxtops4education.com alexa rank daily changes

boxtops4education.com alexa rank chart, boxtops4education.com alexa rank daily changes

boxtops4education.com
Actual rank:
130 096

RANK HISTORY

Date Rank Diff
2017/02/16 130 096 -4 087
2017/02/15 134 183 -684
2017/02/14 134 867 +6 587
2017/02/13 128 280 +1 203
2017/02/12 127 077 -5 402
2017/02/11 132 479 -12 707
2017/02/10 145 186 -5 201
2017/02/09 150 387 -4 792
2017/02/08 155 179 +5 943
2017/02/07 149 236 +1 942
2017/02/06 147 294 +5 824
2017/02/05 141 470 +4 963
2017/02/04 136 507 -2 078
2017/02/03 138 585 +781
2017/02/02 137 804 -1 078
2017/02/01 138 882 -1 905
2017/01/31 140 787 +595
2017/01/30 140 192 -1 016
2017/01/29 141 208 -5 281
2017/01/28 146 489 -10 312
2017/01/27 156 801 -3 034
2017/01/26 159 835 -2 027
2017/01/25 161 862 -603
2017/01/24 162 465 +2 301
2017/01/23 160 164 -103
2017/01/22 160 267 +895
2017/01/21 159 372 -12 786
2017/01/20 172 158 -709
2017/01/19 172 867 -6 390
2017/01/18 179 257 -1 492
2017/01/17 180 749 -2 824
2017/01/16 183 573 +894
2017/01/15 182 679 -4 991
2017/01/14 187 670 -16 815
2017/01/13 204 485 -2 475
2017/01/12 206 960 -4 664
2017/01/11 211 624 -2 789
2017/01/10 214 413 -2 281
2017/01/09 216 694 +1 287
2017/01/08 215 407 -4 189
2017/01/07 219 596 +4 525
2017/01/06 215 071 -18 350
2017/01/05 233 421 -19 917
2017/01/04 253 338 -2 330
2017/01/03 255 668 +3 581
2017/01/02 252 087 +1 023
2017/01/01 251 064 -1 541
2016/12/31 252 605 -5 562
2016/12/30 258 167 +10 547
2016/12/29 247 620 +4 917
2016/12/28 242 703 +1 445
2016/12/27 241 258 +3 732
2016/12/26 237 526 -2 279
2016/12/25 239 805 +92
2016/12/24 239 713 -2 685
2016/12/23 242 398 +1 868
2016/12/22 240 530 -6 960
2016/12/21 247 490 +9 157
2016/12/20 238 333 -1 184
2016/12/19 239 517 +16 397
2016/12/18 223 120

WIDGET FOR YOUR SITE

DOMAINS WITH THE NEAREST RANK

Domain Rank
porntubeboobs.com 130 091
dinozap.info 130 092
keyboard.su 130 093
movenote.com 130 094
sh.se 130 095
boxtops4education.com 130 096
jantareview.com 130 097
akb.ch 130 098
ucc.co.jp 130 099
kididdles.com 130 100
tacticalshit.com 130 101

DOMAINS WITH THE NEAREST RANK BY TLD .com

Domain Rank
ashleydirect.com 130 082
qwilr.com 130 086
auphonic.com 130 088
porntubeboobs.com 130 091
movenote.com 130 094
boxtops4education.com 130 096
jantareview.com 130 097
kididdles.com 130 100
tacticalshit.com 130 101
audiokinetic.com 130 103
mojosells.com 130 104